KCGI/CGI METAR and TAF weather

Enter ICAO airport designator
Station Type Date Time Source
KCGI METAR 2022/09/26 08:53 UTC NOAA

KCGI 260853Z AUTO 27004KT 10SM CLR 08/07 A2996 RMK AO2 SLP144 T00830072 55001


Station Type Date Time Source
KCGI Decoded METAR 2022/09/26 08:53 UTC NOAA

CAPE GIRARDEAU REGIONAL, MO, United States (KCGI) 37-14N 089-35W 102M
Sep 26, 2022 - 04:53 AM EDT / 2022.09.26 0853 UTC
Wind: from the W (270 degrees) at 5 MPH (4 KT):0
Visibility: 10 mile(s):0
Sky conditions: clear
Temperature: 46.9 F (8.3 C)
Dew Point: 45.0 F (7.2 C)
Relative Humidity: 92%
Pressure (altimeter): 29.96 in. Hg (1014 hPa)
Pressure tendency: 0.00 inches (0.1 hPa) lower than three hours ago
ob: KCGI 260853Z AUTO 27004KT 10SM CLR 08/07 A2996 RMK AO2 SLP144 T00830072 55001
cycle: 9

Station Type Date Time Source
KCGI TAF 2022/09/26 06:22 UTC NOAA

TAF KCGI 260520Z 2606/2706 VRB03KT P6SM SCT080
FM261300 32006KT P6SM SKC
FM261600 33013G21KT P6SM FEW250
FM262300 33009KT P6SM FEW250
FM270300 00000KT P6SM SKC

Example: see airport list